sensor_id;sensor_type;location;lat;lon;timestamp;P1;durP1;ratioP1;P2;durP2;ratioP2
21999;SDS011;11164;48.818;2.322;2022-10-16T00:01:23;4.80;;;1.85;;
21999;SDS011;11164;48.818;2.322;2022-10-16T00:03:51;3.58;;;1.40;;
21999;SDS011;11164;48.818;2.322;2022-10-16T00:06:17;4.03;;;1.52;;
21999;SDS011;11164;48.818;2.322;2022-10-16T00:08:44;3.85;;;1.40;;
21999;SDS011;11164;48.818;2.322;2022-10-16T00:11:11;4.50;;;1.63;;
21999;SDS011;11164;48.818;2.322;2022-10-16T00:13:39;6.18;;;1.50;;
21999;SDS011;11164;48.818;2.322;2022-10-16T00:16:06;2.88;;;1.42;;
21999;SDS011;11164;48.818;2.322;2022-10-16T00:18:33;3.75;;;1.30;;
21999;SDS011;11164;48.818;2.322;2022-10-16T00:21:06;5.20;;;1.50;;
21999;SDS011;11164;48.818;2.322;2022-10-16T00:23:40;3.83;;;1.30;;
21999;SDS011;11164;48.818;2.322;2022-10-16T00:26:07;3.67;;;1.50;;
21999;SDS011;11164;48.818;2.322;2022-10-16T00:28:34;4.88;;;1.40;;
21999;SDS011;11164;48.818;2.322;2022-10-16T00:31:04;4.20;;;1.60;;
21999;SDS011;11164;48.818;2.322;2022-10-16T00:33:31;4.45;;;1.50;;
21999;SDS011;11164;48.818;2.322;2022-10-16T00:36:00;3.53;;;1.60;;
21999;SDS011;11164;48.818;2.322;2022-10-16T00:38:27;3.78;;;1.67;;
21999;SDS011;11164;48.818;2.322;2022-10-16T00:40:52;3.42;;;1.70;;
21999;SDS011;11164;48.818;2.322;2022-10-16T00:48:38;4.72;;;2.20;;
21999;SDS011;11164;48.818;2.322;2022-10-16T00:51:04;4.60;;;1.90;;
21999;SDS011;11164;48.818;2.322;2022-10-16T00:53:31;3.63;;;1.70;;
21999;SDS011;11164;48.818;2.322;2022-10-16T00:55:57;3.63;;;1.60;;
21999;SDS011;11164;48.818;2.322;2022-10-16T00:58:23;3.78;;;1.55;;
21999;SDS011;11164;48.818;2.322;2022-10-16T01:00:48;3.13;;;1.60;;
21999;SDS011;11164;48.818;2.322;2022-10-16T01:03:24;4.13;;;1.75;;
21999;SDS011;11164;48.818;2.322;2022-10-16T01:05:59;3.70;;;1.90;;
21999;SDS011;11164;48.818;2.322;2022-10-16T01:14:09;8.15;;;2.10;;
21999;SDS011;11164;48.818;2.322;2022-10-16T01:16:46;4.25;;;1.70;;
21999;SDS011;11164;48.818;2.322;2022-10-16T01:19:41;5.50;;;2.20;;
21999;SDS011;11164;48.818;2.322;2022-10-16T01:22:08;5.20;;;1.67;;
21999;SDS011;11164;48.818;2.322;2022-10-16T01:24:38;3.25;;;1.80;;
21999;SDS011;11164;48.818;2.322;2022-10-16T01:27:25;3.33;;;1.65;;
21999;SDS011;11164;48.818;2.322;2022-10-16T01:29:58;3.20;;;1.42;;
21999;SDS011;11164;48.818;2.322;2022-10-16T01:32:55;2.90;;;1.40;;
21999;SDS011;11164;48.818;2.322;2022-10-16T01:35:33;2.80;;;1.30;;
21999;SDS011;11164;48.818;2.322;2022-10-16T01:38:09;4.95;;;1.80;;
21999;SDS011;11164;48.818;2.322;2022-10-16T01:40:41;3.42;;;1.45;;
21999;SDS011;11164;48.818;2.322;2022-10-16T01:43:12;3.65;;;1.30;;
21999;SDS011;11164;48.818;2.322;2022-10-16T01:45:40;4.05;;;1.52;;
21999;SDS011;11164;48.818;2.322;2022-10-16T01:48:09;3.90;;;1.48;;
21999;SDS011;11164;48.818;2.322;2022-10-16T01:50:39;3.85;;;1.30;;
21999;SDS011;11164;48.818;2.322;2022-10-16T01:53:08;4.47;;;1.58;;
21999;SDS011;11164;48.818;2.322;2022-10-16T01:55:39;7.50;;;1.80;;
21999;SDS011;11164;48.818;2.322;2022-10-16T01:58:10;4.28;;;1.30;;
21999;SDS011;11164;48.818;2.322;2022-10-16T02:00:38;4.05;;;1.20;;
21999;SDS011;11164;48.818;2.322;2022-10-16T02:03:06;3.30;;;1.13;;
21999;SDS011;11164;48.818;2.322;2022-10-16T02:08:03;4.80;;;1.40;;
21999;SDS011;11164;48.818;2.322;2022-10-16T02:10:29;2.45;;;1.17;;
21999;SDS011;11164;48.818;2.322;2022-10-16T02:13:18;2.67;;;1.25;;
21999;SDS011;11164;48.818;2.322;2022-10-16T02:15:48;2.80;;;1.10;;
21999;SDS011;11164;48.818;2.322;2022-10-16T02:18:14;3.80;;;1.17;;
21999;SDS011;11164;48.818;2.322;2022-10-16T02:20:43;3.55;;;1.30;;
21999;SDS011;11164;48.818;2.322;2022-10-16T02:23:17;3.30;;;1.48;;
21999;SDS011;11164;48.818;2.322;2022-10-16T02:25:49;3.35;;;1.20;;
21999;SDS011;11164;48.818;2.322;2022-10-16T02:28:18;2.88;;;1.20;;
21999;SDS011;11164;48.818;2.322;2022-10-16T02:30:50;2.70;;;1.10;;
21999;SDS011;11164;48.818;2.322;2022-10-16T02:33:19;4.93;;;1.30;;
21999;SDS011;11164;48.818;2.322;2022-10-16T02:35:48;3.15;;;1.25;;
21999;SDS011;11164;48.818;2.322;2022-10-16T02:38:15;3.10;;;1.05;;
21999;SDS011;11164;48.818;2.322;2022-10-16T02:40:42;3.22;;;1.00;;
21999;SDS011;11164;48.818;2.322;2022-10-16T02:43:07;4.55;;;1.58;;
21999;SDS011;11164;48.818;2.322;2022-10-16T02:45:34;3.85;;;1.50;;
21999;SDS011;11164;48.818;2.322;2022-10-16T02:48:00;3.80;;;1.48;;
21999;SDS011;11164;48.818;2.322;2022-10-16T02:50:25;2.40;;;1.10;;
21999;SDS011;11164;48.818;2.322;2022-10-16T02:52:50;4.07;;;1.23;;
21999;SDS011;11164;48.818;2.322;2022-10-16T02:55:16;2.47;;;1.00;;
21999;SDS011;11164;48.818;2.322;2022-10-16T02:57:42;3.10;;;1.20;;
21999;SDS011;11164;48.818;2.322;2022-10-16T03:00:09;3.20;;;1.15;;
21999;SDS011;11164;48.818;2.322;2022-10-16T03:02:36;3.67;;;1.20;;
21999;SDS011;11164;48.818;2.322;2022-10-16T03:05:02;2.63;;;1.15;;
21999;SDS011;11164;48.818;2.322;2022-10-16T03:07:28;2.70;;;0.93;;
21999;SDS011;11164;48.818;2.322;2022-10-16T03:09:53;2.00;;;0.88;;
21999;SDS011;11164;48.818;2.322;2022-10-16T03:12:20;5.57;;;1.90;;
21999;SDS011;11164;48.818;2.322;2022-10-16T03:14:46;2.80;;;1.15;;
21999;SDS011;11164;48.818;2.322;2022-10-16T03:17:11;4.18;;;1.00;;
21999;SDS011;11164;48.818;2.322;2022-10-16T03:19:38;3.40;;;0.95;;
21999;SDS011;11164;48.818;2.322;2022-10-16T03:22:03;2.65;;;0.88;;
21999;SDS011;11164;48.818;2.322;2022-10-16T03:24:28;2.45;;;1.15;;
21999;SDS011;11164;48.818;2.322;2022-10-16T03:26:54;3.30;;;1.00;;
21999;SDS011;11164;48.818;2.322;2022-10-16T03:29:19;4.43;;;1.00;;
21999;SDS011;11164;48.818;2.322;2022-10-16T03:31:44;3.45;;;0.90;;
21999;SDS011;11164;48.818;2.322;2022-10-16T03:34:10;2.95;;;1.10;;
21999;SDS011;11164;48.818;2.322;2022-10-16T03:36:35;2.85;;;0.80;;
21999;SDS011;11164;48.818;2.322;2022-10-16T03:39:00;2.55;;;0.68;;
21999;SDS011;11164;48.818;2.322;2022-10-16T03:41:26;3.58;;;0.80;;
21999;SDS011;11164;48.818;2.322;2022-10-16T03:43:51;2.30;;;0.80;;
21999;SDS011;11164;48.818;2.322;2022-10-16T03:46:16;2.83;;;0.82;;
21999;SDS011;11164;48.818;2.322;2022-10-16T03:48:42;3.42;;;0.80;;
21999;SDS011;11164;48.818;2.322;2022-10-16T03:51:07;2.00;;;0.80;;
21999;SDS011;11164;48.818;2.322;2022-10-16T03:53:32;2.20;;;0.80;;
21999;SDS011;11164;48.818;2.322;2022-10-16T03:55:58;4.00;;;0.93;;
21999;SDS011;11164;48.818;2.322;2022-10-16T03:58:23;2.30;;;0.75;;
21999;SDS011;11164;48.818;2.322;2022-10-16T04:00:49;2.63;;;0.70;;
21999;SDS011;11164;48.818;2.322;2022-10-16T04:03:14;2.80;;;0.88;;
21999;SDS011;11164;48.818;2.322;2022-10-16T04:05:40;3.53;;;1.20;;
21999;SDS011;11164;48.818;2.322;2022-10-16T04:08:05;2.20;;;0.73;;
21999;SDS011;11164;48.818;2.322;2022-10-16T04:10:31;1.55;;;0.55;;
21999;SDS011;11164;48.818;2.322;2022-10-16T04:12:56;2.35;;;0.60;;
21999;SDS011;11164;48.818;2.322;2022-10-16T04:15:22;3.13;;;0.77;;
21999;SDS011;11164;48.818;2.322;2022-10-16T04:17:48;4.25;;;0.88;;
21999;SDS011;11164;48.818;2.322;2022-10-16T04:20:13;2.55;;;0.75;;
21999;SDS011;11164;48.818;2.322;2022-10-16T04:22:39;3.25;;;0.85;;
21999;SDS011;11164;48.818;2.322;2022-10-16T04:25:04;3.30;;;0.85;;
21999;SDS011;11164;48.818;2.322;2022-10-16T04:27:30;4.45;;;0.82;;
21999;SDS011;11164;48.818;2.322;2022-10-16T04:29:56;2.63;;;0.80;;
21999;SDS011;11164;48.818;2.322;2022-10-16T04:32:22;3.67;;;1.20;;
21999;SDS011;11164;48.818;2.322;2022-10-16T04:34:47;2.28;;;0.80;;
21999;SDS011;11164;48.818;2.322;2022-10-16T04:37:13;2.65;;;0.90;;
21999;SDS011;11164;48.818;2.322;2022-10-16T04:39:38;2.63;;;0.85;;
21999;SDS011;11164;48.818;2.322;2022-10-16T04:42:03;4.10;;;0.98;;
21999;SDS011;11164;48.818;2.322;2022-10-16T04:44:29;3.33;;;0.90;;
21999;SDS011;11164;48.818;2.322;2022-10-16T04:46:54;2.15;;;0.90;;
21999;SDS011;11164;48.818;2.322;2022-10-16T04:49:19;2.22;;;0.70;;
21999;SDS011;11164;48.818;2.322;2022-10-16T04:51:45;3.22;;;0.90;;
21999;SDS011;11164;48.818;2.322;2022-10-16T04:54:10;2.80;;;0.70;;
21999;SDS011;11164;48.818;2.322;2022-10-16T04:56:36;1.67;;;0.65;;
21999;SDS011;11164;48.818;2.322;2022-10-16T04:59:08;3.08;;;0.80;;
21999;SDS011;11164;48.818;2.322;2022-10-16T05:01:34;4.35;;;0.60;;
21999;SDS011;11164;48.818;2.322;2022-10-16T05:03:59;2.20;;;0.90;;
21999;SDS011;11164;48.818;2.322;2022-10-16T05:06:25;2.58;;;0.90;;
21999;SDS011;11164;48.818;2.322;2022-10-16T05:08:50;3.53;;;1.10;;
21999;SDS011;11164;48.818;2.322;2022-10-16T05:11:17;2.22;;;0.80;;
21999;SDS011;11164;48.818;2.322;2022-10-16T05:13:42;2.30;;;0.80;;
21999;SDS011;11164;48.818;2.322;2022-10-16T05:16:07;2.97;;;0.70;;
21999;SDS011;11164;48.818;2.322;2022-10-16T05:18:32;2.20;;;0.80;;
21999;SDS011;11164;48.818;2.322;2022-10-16T05:20:58;2.10;;;0.80;;
21999;SDS011;11164;48.818;2.322;2022-10-16T05:23:23;2.53;;;0.77;;
21999;SDS011;11164;48.818;2.322;2022-10-16T05:25:52;2.05;;;0.88;;
21999;SDS011;11164;48.818;2.322;2022-10-16T05:28:23;2.83;;;0.90;;
21999;SDS011;11164;48.818;2.322;2022-10-16T05:30:49;2.53;;;0.80;;
21999;SDS011;11164;48.818;2.322;2022-10-16T05:33:15;2.50;;;0.80;;
21999;SDS011;11164;48.818;2.322;2022-10-16T05:35:40;2.88;;;0.80;;
21999;SDS011;11164;48.818;2.322;2022-10-16T05:38:06;2.70;;;0.90;;
21999;SDS011;11164;48.818;2.322;2022-10-16T05:40:31;3.72;;;0.90;;
21999;SDS011;11164;48.818;2.322;2022-10-16T05:42:56;2.20;;;0.80;;
21999;SDS011;11164;48.818;2.322;2022-10-16T05:45:22;3.15;;;0.80;;
21999;SDS011;11164;48.818;2.322;2022-10-16T05:47:47;3.40;;;1.05;;
21999;SDS011;11164;48.818;2.322;2022-10-16T05:50:13;3.17;;;0.80;;
21999;SDS011;11164;48.818;2.322;2022-10-16T05:52:38;3.40;;;1.35;;
21999;SDS011;11164;48.818;2.322;2022-10-16T05:55:04;2.22;;;0.88;;
21999;SDS011;11164;48.818;2.322;2022-10-16T05:57:29;3.20;;;1.00;;
21999;SDS011;11164;48.818;2.322;2022-10-16T05:59:55;4.47;;;1.17;;
21999;SDS011;11164;48.818;2.322;2022-10-16T06:02:20;3.35;;;1.20;;
21999;SDS011;11164;48.818;2.322;2022-10-16T06:04:46;2.78;;;1.00;;
21999;SDS011;11164;48.818;2.322;2022-10-16T06:07:11;3.90;;;1.40;;
21999;SDS011;11164;48.818;2.322;2022-10-16T06:09:37;3.25;;;1.08;;
21999;SDS011;11164;48.818;2.322;2022-10-16T06:12:02;3.17;;;1.00;;
21999;SDS011;11164;48.818;2.322;2022-10-16T06:14:27;2.63;;;0.90;;
21999;SDS011;11164;48.818;2.322;2022-10-16T06:16:53;2.80;;;0.90;;
21999;SDS011;11164;48.818;2.322;2022-10-16T06:19:18;4.03;;;0.95;;
21999;SDS011;11164;48.818;2.322;2022-10-16T06:21:43;2.92;;;0.93;;
21999;SDS011;11164;48.818;2.322;2022-10-16T06:24:09;2.88;;;1.10;;
21999;SDS011;11164;48.818;2.322;2022-10-16T06:26:34;2.88;;;1.00;;
21999;SDS011;11164;48.818;2.322;2022-10-16T06:29:00;3.55;;;1.20;;
21999;SDS011;11164;48.818;2.322;2022-10-16T06:31:26;2.72;;;1.00;;
21999;SDS011;11164;48.818;2.322;2022-10-16T06:33:54;7.28;;;1.55;;
21999;SDS011;11164;48.818;2.322;2022-10-16T06:36:20;3.10;;;1.42;;
21999;SDS011;11164;48.818;2.322;2022-10-16T06:38:45;3.00;;;1.52;;
21999;SDS011;11164;48.818;2.322;2022-10-16T06:41:12;3.75;;;1.88;;
21999;SDS011;11164;48.818;2.322;2022-10-16T06:43:40;5.35;;;1.40;;
21999;SDS011;11164;48.818;2.322;2022-10-16T06:46:06;3.67;;;1.70;;
21999;SDS011;11164;48.818;2.322;2022-10-16T06:48:34;4.65;;;1.60;;
21999;SDS011;11164;48.818;2.322;2022-10-16T06:53:31;4.95;;;1.88;;
21999;SDS011;11164;48.818;2.322;2022-10-16T06:56:09;4.43;;;2.00;;
21999;SDS011;11164;48.818;2.322;2022-10-16T06:58:36;5.22;;;1.60;;
21999;SDS011;11164;48.818;2.322;2022-10-16T07:01:03;3.67;;;1.33;;
21999;SDS011;11164;48.818;2.322;2022-10-16T07:03:29;4.30;;;1.45;;
21999;SDS011;11164;48.818;2.322;2022-10-16T07:05:54;3.88;;;1.27;;
21999;SDS011;11164;48.818;2.322;2022-10-16T07:08:20;5.32;;;1.52;;
21999;SDS011;11164;48.818;2.322;2022-10-16T07:10:45;4.55;;;2.75;;
21999;SDS011;11164;48.818;2.322;2022-10-16T07:13:11;3.92;;;1.90;;
21999;SDS011;11164;48.818;2.322;2022-10-16T07:15:39;4.38;;;1.35;;
21999;SDS011;11164;48.818;2.322;2022-10-16T07:18:05;5.55;;;1.90;;
21999;SDS011;11164;48.818;2.322;2022-10-16T07:20:31;5.10;;;2.58;;
21999;SDS011;11164;48.818;2.322;2022-10-16T07:22:57;3.80;;;2.03;;
21999;SDS011;11164;48.818;2.322;2022-10-16T07:25:22;6.70;;;2.28;;
21999;SDS011;11164;48.818;2.322;2022-10-16T07:27:47;4.57;;;2.00;;
21999;SDS011;11164;48.818;2.322;2022-10-16T07:30:13;4.63;;;2.00;;
21999;SDS011;11164;48.818;2.322;2022-10-16T07:32:38;3.75;;;2.00;;
21999;SDS011;11164;48.818;2.322;2022-10-16T07:35:04;4.75;;;1.85;;
21999;SDS011;11164;48.818;2.322;2022-10-16T07:37:30;4.43;;;1.80;;
21999;SDS011;11164;48.818;2.322;2022-10-16T07:39:55;8.10;;;1.80;;
21999;SDS011;11164;48.818;2.322;2022-10-16T07:42:20;3.65;;;1.90;;
21999;SDS011;11164;48.818;2.322;2022-10-16T07:44:46;4.15;;;1.67;;
21999;SDS011;11164;48.818;2.322;2022-10-16T07:47:11;4.30;;;1.58;;
21999;SDS011;11164;48.818;2.322;2022-10-16T07:49:37;4.18;;;1.70;;
21999;SDS011;11164;48.818;2.322;2022-10-16T07:52:02;3.80;;;2.00;;
21999;SDS011;11164;48.818;2.322;2022-10-16T07:54:27;3.60;;;1.83;;
21999;SDS011;11164;48.818;2.322;2022-10-16T07:56:53;4.13;;;1.70;;
21999;SDS011;11164;48.818;2.322;2022-10-16T07:59:18;3.03;;;1.83;;
21999;SDS011;11164;48.818;2.322;2022-10-16T08:01:43;5.18;;;1.50;;
21999;SDS011;11164;48.818;2.322;2022-10-16T08:04:09;3.40;;;1.80;;
21999;SDS011;11164;48.818;2.322;2022-10-16T08:06:36;4.00;;;1.50;;
21999;SDS011;11164;48.818;2.322;2022-10-16T08:09:03;4.75;;;2.05;;
21999;SDS011;11164;48.818;2.322;2022-10-16T08:11:29;3.58;;;1.23;;
21999;SDS011;11164;48.818;2.322;2022-10-16T08:13:54;6.38;;;2.50;;
21999;SDS011;11164;48.818;2.322;2022-10-16T08:16:20;9.95;;;4.80;;
21999;SDS011;11164;48.818;2.322;2022-10-16T08:18:46;6.57;;;2.92;;
21999;SDS011;11164;48.818;2.322;2022-10-16T08:21:14;6.47;;;1.95;;
21999;SDS011;11164;48.818;2.322;2022-10-16T08:23:41;4.15;;;1.73;;
21999;SDS011;11164;48.818;2.322;2022-10-16T08:26:09;4.35;;;1.98;;
21999;SDS011;11164;48.818;2.322;2022-10-16T08:28:34;5.65;;;1.90;;
21999;SDS011;11164;48.818;2.322;2022-10-16T08:33:32;3.55;;;1.60;;
21999;SDS011;11164;48.818;2.322;2022-10-16T08:36:00;4.00;;;1.92;;
21999;SDS011;11164;48.818;2.322;2022-10-16T08:38:25;4.35;;;2.30;;
21999;SDS011;11164;48.818;2.322;2022-10-16T08:40:51;6.93;;;4.03;;
21999;SDS011;11164;48.818;2.322;2022-10-16T08:50:51;21.52;;;14.00;;
21999;SDS011;11164;48.818;2.322;2022-10-16T08:53:23;29.63;;;20.58;;
21999;SDS011;11164;48.818;2.322;2022-10-16T08:55:54;5.45;;;1.90;;
21999;SDS011;11164;48.818;2.322;2022-10-16T08:58:20;3.40;;;1.67;;
21999;SDS011;11164;48.818;2.322;2022-10-16T09:00:48;11.65;;;3.60;;
21999;SDS011;11164;48.818;2.322;2022-10-16T09:06:14;6.25;;;3.00;;
21999;SDS011;11164;48.818;2.322;2022-10-16T09:17:04;5.03;;;2.90;;
21999;SDS011;11164;48.818;2.322;2022-10-16T09:20:07;4.32;;;2.35;;
21999;SDS011;11164;48.818;2.322;2022-10-16T09:22:39;4.45;;;2.50;;
21999;SDS011;11164;48.818;2.322;2022-10-16T09:25:10;3.22;;;1.70;;
21999;SDS011;11164;48.818;2.322;2022-10-16T09:27:38;3.72;;;2.17;;
21999;SDS011;11164;48.818;2.322;2022-10-16T09:30:10;4.32;;;2.30;;
21999;SDS011;11164;48.818;2.322;2022-10-16T09:35:04;3.38;;;2.30;;
21999;SDS011;11164;48.818;2.322;2022-10-16T09:37:39;4.65;;;2.38;;
21999;SDS011;11164;48.818;2.322;2022-10-16T09:40:11;5.25;;;2.10;;
21999;SDS011;11164;48.818;2.322;2022-10-16T09:42:38;4.53;;;1.40;;
21999;SDS011;11164;48.818;2.322;2022-10-16T09:45:04;4.68;;;1.88;;
21999;SDS011;11164;48.818;2.322;2022-10-16T09:47:35;5.40;;;;;
21999;SDS011;11164;48.818;2.322;2022-10-16T09:50:19;4.90;;;1.85;;
21999;SDS011;11164;48.818;2.322;2022-10-16T09:52:51;2.83;;;1.52;;
21999;SDS011;11164;48.818;2.322;2022-10-16T09:55:27;4.22;;;1.77;;
21999;SDS011;11164;48.818;2.322;2022-10-16T09:57:53;2.65;;;1.40;;
21999;SDS011;11164;48.818;2.322;2022-10-16T10:00:20;4.47;;;1.50;;
21999;SDS011;11164;48.818;2.322;2022-10-16T10:02:48;2.97;;;1.33;;
21999;SDS011;11164;48.818;2.322;2022-10-16T10:05:18;4.07;;;2.13;;
21999;SDS011;11164;48.818;2.322;2022-10-16T10:07:54;4.03;;;2.00;;
21999;SDS011;11164;48.818;2.322;2022-10-16T10:10:23;3.60;;;1.80;;
21999;SDS011;11164;48.818;2.322;2022-10-16T10:12:54;3.42;;;1.40;;
21999;SDS011;11164;48.818;2.322;2022-10-16T10:15:20;3.17;;;1.42;;
21999;SDS011;11164;48.818;2.322;2022-10-16T10:17:50;3.28;;;1.48;;
21999;SDS011;11164;48.818;2.322;2022-10-16T10:23:00;2.90;;;1.10;;
21999;SDS011;11164;48.818;2.322;2022-10-16T10:25:48;3.10;;;0.90;;
21999;SDS011;11164;48.818;2.322;2022-10-16T10:31:06;3.45;;;1.60;;
21999;SDS011;11164;48.818;2.322;2022-10-16T10:36:29;4.22;;;1.33;;
21999;SDS011;11164;48.818;2.322;2022-10-16T10:39:03;2.88;;;1.15;;
21999;SDS011;11164;48.818;2.322;2022-10-16T10:58:12;6.57;;;4.22;;
21999;SDS011;11164;48.818;2.322;2022-10-16T11:01:01;2.90;;;1.10;;
21999;SDS011;11164;48.818;2.322;2022-10-16T11:09:00;3.50;;;1.00;;
21999;SDS011;11164;48.818;2.322;2022-10-16T11:17:13;2.05;;;0.70;;
21999;SDS011;11164;48.818;2.322;2022-10-16T11:23:02;1.77;;;0.70;;
21999;SDS011;11164;48.818;2.322;2022-10-16T11:25:32;3.20;;;0.80;;
21999;SDS011;11164;48.818;2.322;2022-10-16T11:30:59;3.05;;;1.10;;
21999;SDS011;11164;48.818;2.322;2022-10-16T11:33:49;3.30;;;1.00;;
21999;SDS011;11164;48.818;2.322;2022-10-16T11:36:27;1.85;;;0.82;;
21999;SDS011;11164;48.818;2.322;2022-10-16T11:38:58;2.15;;;0.90;;
21999;SDS011;11164;48.818;2.322;2022-10-16T11:44:05;2.15;;;1.00;;
21999;SDS011;11164;48.818;2.322;2022-10-16T11:49:50;1.88;;;0.60;;
21999;SDS011;11164;48.818;2.322;2022-10-16T11:52:28;1.90;;;0.80;;
21999;SDS011;11164;48.818;2.322;2022-10-16T11:57:34;2.00;;;0.70;;
21999;SDS011;11164;48.818;2.322;2022-10-16T12:03:30;2.50;;;0.73;;
21999;SDS011;11164;48.818;2.322;2022-10-16T12:06:25;3.30;;;1.20;;
21999;SDS011;11164;48.818;2.322;2022-10-16T12:08:58;2.25;;;0.75;;
21999;SDS011;11164;48.818;2.322;2022-10-16T12:14:04;1.90;;;0.75;;
21999;SDS011;11164;48.818;2.322;2022-10-16T12:16:31;2.45;;;0.77;;
21999;SDS011;11164;48.818;2.322;2022-10-16T12:19:10;4.65;;;1.17;;
21999;SDS011;11164;48.818;2.322;2022-10-16T12:21:37;3.20;;;0.90;;
21999;SDS011;11164;48.818;2.322;2022-10-16T12:24:03;2.58;;;1.00;;
21999;SDS011;11164;48.818;2.322;2022-10-16T12:26:31;8.68;;;1.17;;
21999;SDS011;11164;48.818;2.322;2022-10-16T12:31:47;2.65;;;1.23;;
21999;SDS011;11164;48.818;2.322;2022-10-16T12:34:21;1.98;;;1.00;;
21999;SDS011;11164;48.818;2.322;2022-10-16T12:36:56;3.10;;;1.20;;
21999;SDS011;11164;48.818;2.322;2022-10-16T12:39:35;2.67;;;1.17;;
21999;SDS011;11164;48.818;2.322;2022-10-16T12:44:52;3.83;;;1.40;;
21999;SDS011;11164;48.818;2.322;2022-10-16T12:47:47;2.58;;;1.50;;
21999;SDS011;11164;48.818;2.322;2022-10-16T12:50:33;2.55;;;1.38;;
21999;SDS011;11164;48.818;2.322;2022-10-16T12:53:23;3.63;;;2.05;;
21999;SDS011;11164;48.818;2.322;2022-10-16T12:58:56;5.13;;;2.33;;
21999;SDS011;11164;48.818;2.322;2022-10-16T13:04:50;4.22;;;1.77;;
21999;SDS011;11164;48.818;2.322;2022-10-16T13:10:13;3.10;;;1.70;;
21999;SDS011;11164;48.818;2.322;2022-10-16T13:13:02;2.92;;;1.50;;
21999;SDS011;11164;48.818;2.322;2022-10-16T13:18:33;3.15;;;1.70;;
21999;SDS011;11164;48.818;2.322;2022-10-16T13:29:43;5.15;;;1.60;;
21999;SDS011;11164;48.818;2.322;2022-10-16T13:32:09;3.50;;;1.70;;
21999;SDS011;11164;48.818;2.322;2022-10-16T13:34:44;3.22;;;1.50;;
21999;SDS011;11164;48.818;2.322;2022-10-16T13:37:20;4.13;;;1.80;;
21999;SDS011;11164;48.818;2.322;2022-10-16T13:39:47;3.10;;;1.50;;
21999;SDS011;11164;48.818;2.322;2022-10-16T13:42:14;2.33;;;1.23;;
21999;SDS011;11164;48.818;2.322;2022-10-16T13:44:51;2.53;;;1.40;;
21999;SDS011;11164;48.818;2.322;2022-10-16T13:47:20;2.78;;;1.35;;
21999;SDS011;11164;48.818;2.322;2022-10-16T13:50:00;3.25;;;1.30;;
21999;SDS011;11164;48.818;2.322;2022-10-16T13:52:25;3.03;;;1.42;;
21999;SDS011;11164;48.818;2.322;2022-10-16T13:54:51;3.90;;;2.00;;
21999;SDS011;11164;48.818;2.322;2022-10-16T13:57:18;3.60;;;1.52;;
21999;SDS011;11164;48.818;2.322;2022-10-16T13:59:48;4.78;;;1.58;;
21999;SDS011;11164;48.818;2.322;2022-10-16T14:02:30;3.17;;;1.60;;
21999;SDS011;11164;48.818;2.322;2022-10-16T14:05:00;3.17;;;1.63;;
21999;SDS011;11164;48.818;2.322;2022-10-16T14:07:29;3.90;;;2.15;;
21999;SDS011;11164;48.818;2.322;2022-10-16T14:10:00;4.70;;;1.70;;
21999;SDS011;11164;48.818;2.322;2022-10-16T14:14:56;3.90;;;1.75;;
21999;SDS011;11164;48.818;2.322;2022-10-16T14:17:28;3.58;;;1.65;;
21999;SDS011;11164;48.818;2.322;2022-10-16T14:19:57;4.00;;;1.90;;
21999;SDS011;11164;48.818;2.322;2022-10-16T14:22:31;5.55;;;1.88;;
21999;SDS011;11164;48.818;2.322;2022-10-16T14:33:22;3.90;;;1.77;;
21999;SDS011;11164;48.818;2.322;2022-10-16T14:35:56;6.63;;;2.08;;
21999;SDS011;11164;48.818;2.322;2022-10-16T14:38:24;3.97;;;2.10;;
21999;SDS011;11164;48.818;2.322;2022-10-16T14:40:49;5.18;;;2.20;;
21999;SDS011;11164;48.818;2.322;2022-10-16T14:43:20;4.22;;;2.15;;
21999;SDS011;11164;48.818;2.322;2022-10-16T14:45:54;4.75;;;2.03;;
21999;SDS011;11164;48.818;2.322;2022-10-16T14:48:21;4.90;;;2.22;;
21999;SDS011;11164;48.818;2.322;2022-10-16T14:50:47;5.03;;;2.40;;
21999;SDS011;11164;48.818;2.322;2022-10-16T14:53:13;5.30;;;2.33;;
21999;SDS011;11164;48.818;2.322;2022-10-16T14:55:39;4.80;;;2.20;;
21999;SDS011;11164;48.818;2.322;2022-10-16T14:58:05;5.85;;;2.10;;
21999;SDS011;11164;48.818;2.322;2022-10-16T15:00:35;5.22;;;2.47;;
21999;SDS011;11164;48.818;2.322;2022-10-16T15:03:00;5.10;;;2.15;;
21999;SDS011;11164;48.818;2.322;2022-10-16T15:05:26;5.43;;;2.25;;
21999;SDS011;11164;48.818;2.322;2022-10-16T15:07:55;6.15;;;2.70;;
21999;SDS011;11164;48.818;2.322;2022-10-16T15:10:21;7.80;;;2.53;;
21999;SDS011;11164;48.818;2.322;2022-10-16T15:12:48;5.47;;;2.60;;
21999;SDS011;11164;48.818;2.322;2022-10-16T15:15:25;3.90;;;2.38;;
21999;SDS011;11164;48.818;2.322;2022-10-16T15:17:55;4.72;;;2.30;;
21999;SDS011;11164;48.818;2.322;2022-10-16T15:20:24;5.55;;;2.40;;
21999;SDS011;11164;48.818;2.322;2022-10-16T15:22:51;4.70;;;2.20;;
21999;SDS011;11164;48.818;2.322;2022-10-16T15:27:44;4.95;;;2.40;;
21999;SDS011;11164;48.818;2.322;2022-10-16T15:30:10;6.70;;;2.40;;
21999;SDS011;11164;48.818;2.322;2022-10-16T15:32:35;4.75;;;2.35;;
21999;SDS011;11164;48.818;2.322;2022-10-16T15:35:01;6.00;;;2.22;;
21999;SDS011;11164;48.818;2.322;2022-10-16T15:37:26;4.45;;;2.47;;
21999;SDS011;11164;48.818;2.322;2022-10-16T15:39:52;5.95;;;2.42;;
21999;SDS011;11164;48.818;2.322;2022-10-16T15:42:17;4.82;;;2.40;;
21999;SDS011;11164;48.818;2.322;2022-10-16T15:44:42;5.28;;;2.42;;
21999;SDS011;11164;48.818;2.322;2022-10-16T15:47:08;6.80;;;2.25;;
21999;SDS011;11164;48.818;2.322;2022-10-16T15:49:34;3.97;;;2.10;;
21999;SDS011;11164;48.818;2.322;2022-10-16T15:51:59;5.95;;;2.20;;
21999;SDS011;11164;48.818;2.322;2022-10-16T15:54:25;3.40;;;2.15;;
21999;SDS011;11164;48.818;2.322;2022-10-16T15:56:50;6.45;;;2.38;;
21999;SDS011;11164;48.818;2.322;2022-10-16T15:59:15;4.50;;;2.10;;
21999;SDS011;11164;48.818;2.322;2022-10-16T16:01:41;4.70;;;2.20;;
21999;SDS011;11164;48.818;2.322;2022-10-16T16:04:06;5.45;;;2.40;;
21999;SDS011;11164;48.818;2.322;2022-10-16T16:06:31;4.05;;;2.25;;
21999;SDS011;11164;48.818;2.322;2022-10-16T16:08:57;5.28;;;2.58;;
21999;SDS011;11164;48.818;2.322;2022-10-16T16:11:24;4.47;;;2.35;;
21999;SDS011;11164;48.818;2.322;2022-10-16T16:13:50;6.32;;;2.45;;
21999;SDS011;11164;48.818;2.322;2022-10-16T16:16:16;3.30;;;2.10;;
21999;SDS011;11164;48.818;2.322;2022-10-16T16:18:42;6.10;;;2.45;;
21999;SDS011;11164;48.818;2.322;2022-10-16T16:21:08;5.07;;;2.13;;
21999;SDS011;11164;48.818;2.322;2022-10-16T16:23:35;6.50;;;2.60;;
21999;SDS011;11164;48.818;2.322;2022-10-16T16:26:05;5.70;;;2.33;;
21999;SDS011;11164;48.818;2.322;2022-10-16T16:28:31;5.63;;;2.50;;
21999;SDS011;11164;48.818;2.322;2022-10-16T16:30:57;5.95;;;2.60;;
21999;SDS011;11164;48.818;2.322;2022-10-16T16:33:22;4.97;;;2.47;;
21999;SDS011;11164;48.818;2.322;2022-10-16T16:35:48;6.78;;;2.83;;
21999;SDS011;11164;48.818;2.322;2022-10-16T16:38:13;5.45;;;2.65;;
21999;SDS011;11164;48.818;2.322;2022-10-16T16:40:39;5.93;;;2.67;;
21999;SDS011;11164;48.818;2.322;2022-10-16T16:43:04;5.00;;;2.70;;
21999;SDS011;11164;48.818;2.322;2022-10-16T16:45:29;7.25;;;2.67;;
21999;SDS011;11164;48.818;2.322;2022-10-16T16:47:55;5.43;;;2.67;;
21999;SDS011;11164;48.818;2.322;2022-10-16T16:50:20;5.65;;;3.35;;
21999;SDS011;11164;48.818;2.322;2022-10-16T16:52:46;6.72;;;3.40;;
21999;SDS011;11164;48.818;2.322;2022-10-16T16:55:11;8.20;;;3.67;;
21999;SDS011;11164;48.818;2.322;2022-10-16T16:57:36;6.78;;;3.63;;
21999;SDS011;11164;48.818;2.322;2022-10-16T17:00:02;6.35;;;3.50;;
21999;SDS011;11164;48.818;2.322;2022-10-16T17:02:28;6.75;;;3.47;;
21999;SDS011;11164;48.818;2.322;2022-10-16T17:04:54;6.70;;;3.70;;
21999;SDS011;11164;48.818;2.322;2022-10-16T17:07:21;7.57;;;4.40;;
21999;SDS011;11164;48.818;2.322;2022-10-16T17:09:47;13.68;;;6.85;;
21999;SDS011;11164;48.818;2.322;2022-10-16T17:12:12;5.70;;;3.53;;